TOP > 外国特許検索

外国特許検索

Display results per page Option
Patent state
Country

Clear

Hits 4683 results

No. Application number
Gazette No
Country
Title
Release Date
Update Date
Information Provider
4601 201715612992 10910654 アメリカ合衆国 Electric power generation method using electrode catalyst for fuel cell UPDATE 2018/04/20 2021/04/27 科学技術振興機構(JST)
4602 201816155444 20190044082 アメリカ合衆国 Liquid organic semiconductor material UPDATE 2019/05/09 2021/04/27 科学技術振興機構(JST)
4603 2020JP002552 WO 2020153485 世界知的所有権機関(WIPO) SOLID ELECTROLYTE, ELECTROLYTE LAYER AND BATTERY NEW 2021/04/27 2021/04/27 東京工業大学
4604 2020JP029239 WO 2021024906 世界知的所有権機関(WIPO) HYDROPHILIC-HYDROPHOBIC COPOLYMER CARRYING SHORT-CHAIN FATTY ACID ESTER NEW 2021/04/27 2021/04/27 筑波大学
4605 2020JP027655 WO 2021024742 世界知的所有権機関(WIPO) CYTOTOXICITY ASSAY METHOD NEW 2021/04/27 2021/04/27 筑波大学
4606 2020JP028981 WO 2021020421 世界知的所有権機関(WIPO) CELL DEATH INHIBITOR AND CELL DEATH INHIBITION METHOD NEW 新技術説明会 2021/04/27 2021/04/27 筑波大学
4607 2020JP016434 WO 2020213604 世界知的所有権機関(WIPO) NOVEL β-AMYLASE AND METHOD FOR UTILIZATION AND PRODUCTION THEREOF NEW 2021/04/27 2021/04/27 大阪府立大学
4608 2020JP024945 WO 2021002267 世界知的所有権機関(WIPO) ODMR TEMPERATURE MEASUREMENT METHOD NEW 2021/04/27 2021/04/27 大阪市立大学
4609 2020JP027504 WO 2021015070 世界知的所有権機関(WIPO) PIXEL, SOLID-STATE IMAGE PICKUP DEVICE, AND METHOD OF MANUFACTURING PIXEL NEW 2021/04/27 2021/04/27 静岡大学
4610 2020JP031285 WO 2021033720 世界知的所有権機関(WIPO) METHOD, PROGRAM, AND SYSTEM FOR ASSISTING DETERMINATION OF NOVELTY OF TECHNOLOGY DESCRIBED IN ACADEMIC DOCUMENT NEW 2021/04/27 2021/04/27 弘前大学
4611 2020JP029659 WO 2021033525 世界知的所有権機関(WIPO) LENS ANTENNA, RADAR DEVICE USING SAME, AND WIRELESS COMMUNICATION DEVICE NEW 2021/04/27 2021/04/27 慶應義塾大学
4612 20067008650 100769707 大韓民国 Metal oxynitride electrode catalyst UPDATE 2011/07/21 2021/04/28 科学技術振興機構(JST)
4613 20077017724 100924668 大韓民国 N-type transistor, production methods for n-type transistor sensor and n-type transistor-use channel, and production method of nanotube structure exhibiting n-type semiconductor-like characteristics UPDATE 2011/07/21 2021/04/28 科学技術振興機構(JST)
4614 20087012940 101004051 大韓民国 Iron-based alloy having shape-memory property and superelasticity and method for manufacture thereof UPDATE 2011/07/21 2021/04/28 科学技術振興機構(JST)
4615 20087008003 101336840 大韓民国 Lewis acid catalyzed halogenation of activated carbon atoms UPDATE 2011/07/21 2021/04/28 科学技術振興機構(JST)
4616 20067002916 100730292 大韓民国 Actuator element and production method therefor UPDATE 2011/07/21 2021/04/28 科学技術振興機構(JST)
4617 20117004218 101154494 大韓民国 Highly efficient group-III nitride based light emitting diodes via fabrication of structures on an N-face surface UPDATE 2011/07/21 2021/04/28 科学技術振興機構(JST)
4618 20077023104 101145755 大韓民国 Technique for the growth of planar semi-polar gallium nitride UPDATE 実績あり 2011/07/21 2021/04/28 科学技術振興機構(JST)
4619 20077030909 101351396 大韓民国 Technique for the growth and fabrication of semipolar (Ga,Al,In,B)N thin films, heterostructures, and devices UPDATE 実績あり 2011/07/21 2021/04/28 科学技術振興機構(JST)
4620 20087008498 101347848 大韓民国 Method for enhancing growth of semi-polar (Al,In,Ga,B)N via metalorganic chemical vapor deposition UPDATE 実績あり 2011/07/21 2021/04/28 科学技術振興機構(JST)
4621 20087020383 101510461 大韓民国 Method for improved growth of semipolar (Al,In,Ga,B)N UPDATE 実績あり 2011/07/21 2021/04/28 科学技術振興機構(JST)
4622 20067004025 100746863 大韓民国 Field-effect transistor, single electron transistor, and sensor using same UPDATE 2011/07/22 2021/04/28 科学技術振興機構(JST)
4623 20057011014 101086155 大韓民国 Growth of planar, non-polar gallium nitride by hydride vapor phase epitaxy UPDATE 実績あり 2011/07/22 2021/04/28 科学技術振興機構(JST)
4624 2020JP023063 WO 2021005955 世界知的所有権機関(WIPO) MEDICAL IMAGE GUIDANCE MARKER NEW 2021/04/28 2021/04/28 京都府立医科大学
4625 2020JP028438 WO 2021020273 世界知的所有権機関(WIPO) DESCRIPTION GENERATING DEVICE, DESCRIPTION GENERATING METHOD, AND PROGRAM NEW 2021/04/28 2021/04/28 横浜国立大学
4626 2020JP030913 WO 2021033650 世界知的所有権機関(WIPO) LIQUID CRYSTAL ELEMENT AND LIQUID CRYSTAL ELEMENT MANUFACTURING METHOD NEW 2021/04/28 2021/04/28 立命館大学
4627 2020JP023694 WO 2021014836 世界知的所有権機関(WIPO) FLUORORESIN MODIFIER, AND MODIFIED FLUORORESIN MOLDED ARTICLE AND METHOD FOR PRODUCING SAME NEW 新技術説明会 2021/04/28 2021/04/28 福岡大学
4628 2020JP027921 WO 2021010481 世界知的所有権機関(WIPO) ADHESIVE PROTEIN NEW 新技術説明会 2021/04/28 2021/04/28 東海国立大学機構
4629 2020JP027922 WO 2021010482 世界知的所有権機関(WIPO) SEPARATED PEPTIDE NEW 新技術説明会 2021/04/28 2021/04/28 東海国立大学機構
4630 2020JP029446 WO 2021020564 世界知的所有権機関(WIPO) GD2 BINDING MOLECULE NEW 2021/04/28 2021/04/28 三重大学
4631 2020JP029437 WO 2021020559 世界知的所有権機関(WIPO) ANTIGEN RECEPTOR NEW 2021/04/28 2021/04/28 三重大学
4632 2020JP028497 WO 2021015249 世界知的所有権機関(WIPO) ESTIMATOR LEARNING DEVICE, ESTIMATOR LEARNING METHOD, AND ESTIMATOR LEARNING PROGRAM NEW 2021/04/28 2021/04/28 埼玉医科大学
4633 20067013748 101156146 大韓民国 Highly efficient group-iii nitride based light emitting diodes via fabrication of structures on an n-face surface UPDATE 実績あり 2011/07/22 2021/05/06 科学技術振興機構(JST)
4634 20107020836 101426985 大韓民国 Microbial fuel cell UPDATE 2011/07/22 2021/05/06 科学技術振興機構(JST)
4635 20067002013 100801544 大韓民国 Field Effect Transistor and Method for Manufacturing Same UPDATE 新技術説明会 2011/07/22 2021/05/06 科学技術振興機構(JST)
4636 20067019694 100867662 大韓民国 Magnetoresistive element, tunnel barrier layer and method of manufacturing the magnetoresistive element UPDATE 2011/07/22 2021/05/06 科学技術振興機構(JST)
4637 20077008452 100898218 大韓民国 Ceramic Particle Group and Method for Production Thereof and Use Thereof UPDATE 実績あり 2011/07/22 2021/05/06 科学技術振興機構(JST)
4638 20097026510 101170063 大韓民国 Transparent electroconductive thin film and process for producing the transparent electroconductive thin film UPDATE 2011/07/22 2021/05/06 科学技術振興機構(JST)
4639 20107017478 101217995 大韓民国 Morphing music generating device and morphing music generating program UPDATE 新技術説明会 2011/07/22 2021/05/06 科学技術振興機構(JST)
4640 20067019099 100811969 大韓民国 Sugar chain ligand composite and method of analyzing protein with the ligand composite UPDATE 実績あり 2011/07/22 2021/05/06 科学技術振興機構(JST)
4641 20097020833 101486095 大韓民国 Catalyst for reforming oxygen-containing hydrocarbon, and hydrogen or synthetic gas production method and fuel cell system using the catalyst UPDATE 2011/07/25 2021/05/06 科学技術振興機構(JST)
4642 20077027691 101329907 大韓民国 Transdermal absorption accelerator UPDATE 実績あり 2011/07/25 2021/05/06 科学技術振興機構(JST)
4643 20077002893 100797173 大韓民国 Metal oxide electrode catalyst UPDATE 2011/07/27 2021/05/06 科学技術振興機構(JST)
4644 20077002022 100883715 大韓民国 Discrete signal processing device and processing method UPDATE 2011/07/27 2021/05/06 科学技術振興機構(JST)
4645 2020JP029770 WO 2021025005 世界知的所有権機関(WIPO) HOLLOW COLLAGEN GEL NEW 2021/05/06 2021/05/06 佐賀大学
4646 2020JP027085 WO 2021006343 世界知的所有権機関(WIPO) COMMUNICATION SYSTEM, REMOTE CONTROL MACHINE SYSTEM, AND COMMUNICATION METHOD NEW 2021/05/06 2021/05/06 九州工業大学
4647 2020JP032053 WO 2021039800 世界知的所有権機関(WIPO) METHOD FOR PREPARING ENANTIOMER OF SULFOXIDE COMPOUND, AND SYSTEM FOR PREPARING ENANTIOMER NEW 新技術説明会 2021/05/06 2021/05/06 東京理科大学
4648 2020JP032761 WO 2021040023 世界知的所有権機関(WIPO) PHOTOTHERMAL CONVERSION ELEMENT, PRODUCTION METHOD FOR SAME, PHOTOTHERMAL POWER GENERATION DEVICE, AND MICRO-OBJECT AGGREGATION SYSTEM NEW 2021/05/06 2021/05/06 大阪府立大学
4649 2020JP032760 WO 2021040022 世界知的所有権機関(WIPO) CELL-PENETRATING PEPTIDE AND USE THEREOF NEW 2021/05/06 2021/05/06 大阪府立大学
4650 2020JP032758 WO 2021040021 世界知的所有権機関(WIPO) DETECTION METHOD FOR SUBSTANCE TO BE DETECTED AND DETECTION SYSTEM FOR SUBSTANCE TO BE DETECTED NEW 2021/05/06 2021/05/06 大阪府立大学
4651 2020JP031456 WO 2021039584 世界知的所有権機関(WIPO) LAYERED DOUBLE HYDROXIDE CRYSTAL, ANION ADSORBENT, AND LAYERED DOUBLE HYDROXIDE CRYSTAL PRODUCTION METHOD NEW 2021/05/06 2021/05/06 信州大学
4652 2020JP025987 WO 2021039112 世界知的所有権機関(WIPO) SUBMERGED PLASMA GENERATION DEVICE NEW 2021/05/06 2021/05/06 佐賀大学
4653 2020JP031521 WO 2021039600 世界知的所有権機関(WIPO) TACTILE SENSOR ELEMENT, TACTILE SENSOR, TRIAXIAL TACTILE SENSOR, AND TACTILE SENSOR ELEMENT MANUFACTURING METHOD NEW 2021/05/06 2021/05/06 弘前大学
4654 2020JP032248 WO 2021039868 世界知的所有権機関(WIPO) ROTATING ELECTRICAL MACHINE NEW 2021/05/06 2021/05/06 工学院大学
4655 2020JP032606 WO 2021039965 世界知的所有権機関(WIPO) METHOD FOR PRODUCING PARVALBUMIN-POSITIVE NERVE CELLS, CELL, AND DIFFERENTIATION INDUCER NEW 2021/05/06 2021/05/06 慶應義塾大学
4656 2020JP032028 WO 2021039789 世界知的所有権機関(WIPO) REAGENT FOR MEASURING OXYGEN CONCENTRATION IN CELL AND TISSUE NEW 2021/05/06 2021/05/06 群馬大学
4657 2020JP029441 WO 2021020561 世界知的所有権機関(WIPO) PRIMER, APPARATUS FOR PRODUCING DOUBLE-STRANDED DNA USING SAME, AND METHOD FOR PRODUCING DOUBLE-STRANDED DNA NEW 2021/05/06 2021/05/06 科学技術振興機構(JST)
4658 2020JP029442 WO 2021020562 世界知的所有権機関(WIPO) PRIMER, DEVICE FOR PRODUCING DOUBLE-STRANDED DNA USING SAME, AND METHOD FOR PRODUCING DOUBLE-STRANDED DNA NEW 2021/05/06 2021/05/06 科学技術振興機構(JST)
4659 2020JP021963 WO 2021024598 世界知的所有権機関(WIPO) NON-VOLATILE MEMORY DEVICE AND METHOD FOR OPERATING SAME NEW 2021/05/06 2021/05/06 科学技術振興機構(JST)
4660 20077002874 100746867 大韓民国 Field-effect transistor, single electron transistor, and sensor using same UPDATE 2011/07/27 2021/05/07 科学技術振興機構(JST)
4661 20027011610 100517455 大韓民国 Intermetallic compound superconductors and alloy superconductors and methods of making them UPDATE 実績あり 2011/07/28 2021/05/07 科学技術振興機構(JST)
4662 20117007416 101145753 大韓民国 Technique for the growth of planar semi-polar gallium nitride UPDATE 実績あり 2011/08/02 2021/05/07 科学技術振興機構(JST)
4663 20127010536 101499203 大韓民国 Growth of planar non-polar (1-100) m-plane gallium nitride with metalorganic chemical vapor deposition (MOCVD) UPDATE 実績あり 2012/11/22 2021/05/07 科学技術振興機構(JST)
4664 20127010588 101307303 大韓民国 Transparent electroconductive thin film and process for producing the transparent electroconductive thin film UPDATE 2012/11/22 2021/05/07 科学技術振興機構(JST)
4665 20157010816 102111820 大韓民国 Dynamic network biomarker detection device detection method and detection program UPDATE 2017/03/14 2021/05/07 科学技術振興機構(JST)
4666 20157022898 101704662 大韓民国 Digital filter for image processing, and character string tilt illusion generating device UPDATE 2017/03/14 2021/05/07 科学技術振興機構(JST)
4667 20167001466 101770705 大韓民国 Nucleic acid-encapsulating polymer micelle complex and method for producing same UPDATE 2017/09/12 2021/05/07 科学技術振興機構(JST)
4668 20147016942 101680154 大韓民国 Planar patch clamp device, electrodes for said device and cell ion channel current measurement method UPDATE 2017/09/12 2021/05/07 科学技術振興機構(JST)
4669 20157006609 102027808 大韓民国 Formation and use of neuronal network and neuron seeding device UPDATE 2017/09/12 2021/05/07 科学技術振興機構(JST)
4670 20167005553 101842069 大韓民国 Planar Patch Clamp Device and Planar Patch Clamp System UPDATE 2017/09/12 2021/05/07 科学技術振興機構(JST)
4671 20117021519 101351447 大韓民国 Transportation of Micrometer-Sized Object and Extraction of Mechanical Work by Constant Electric Field UPDATE 2017/09/12 2021/05/07 科学技術振興機構(JST)
4672 2020JP027690 WO 2021044743 世界知的所有権機関(WIPO) MOLECULAR MEMORY AND METHOD FOR MANUFACTURING MOLECULAR MEMORY NEW 2021/05/07 2021/05/07 広島大学
4673 2020JP034928 WO 2021054329 世界知的所有権機関(WIPO) METHOD FOR USING ADSORBENT, AND ADSORBENT SET NEW 2021/05/07 2021/05/07 広島大学
4674 2020JP035609 WO 2021054472 世界知的所有権機関(WIPO) MAGNETIC FIELD GENERATING DEVICE, AND ROTATING ELECTRICAL MACHINE NEW 2021/05/07 2021/05/07 工学院大学
4675 2020JP034978 WO 2021054338 世界知的所有権機関(WIPO) CURRENT INTERRUPTION DEVICE AND CURRENT INTERRUPTION METHOD NEW 2021/05/07 2021/05/07 埼玉大学
4676 2020JP034073 WO 2021049515 世界知的所有権機関(WIPO) COMPLEX AND PRODUCTION METHOD FOR COMPLEX NEW 2021/05/07 2021/05/07 日大NUBIC
4677 2020JP035047 WO 2021054351 世界知的所有権機関(WIPO) MEMBRANE PERMEATION ENHANCER AND METHOD FOR ENHANCING MEMBRANE PERMEATION NEW 2021/05/07 2021/05/07 東京理科大学
4678 2020JP032967 WO 2021045022 世界知的所有権機関(WIPO) THERMAL RADIATION LENS NEW 2021/05/07 2021/05/07 東京農工大学
4679 2020JP034538 WO 2021049633 世界知的所有権機関(WIPO) DRUG FOR CURATIVE THERAPY OF INTRACTABLE HEREDITARY RENAL ALPORT SYNDROME NEW 2021/05/07 2021/05/07 熊本大学
4680 2020JP035517 WO 2021054449 世界知的所有権機関(WIPO) LBM, CPC, OPC, PRODUCTION AND QUALITY CONTROL METHODS THEREFOR, KIT, GRAFT MATERIAL, AND DISEASE MODEL NEW 2021/05/07 2021/05/07 岡山大学
4681 201980024094 111971649 中華人民共和国 Arithmetic operation device and arithmetic operation system NEW 2021/05/07 2021/05/07 理化学研究所
4682 2020JP034976 WO 2021060089 世界知的所有権機関(WIPO) LIQUID FLOW FORMATION METHOD AND OBJECT MOVING METHOD USING SAME NEW 2021/05/07 2021/05/07 同志社大学
4683 2020JP036853 WO 2021065893 世界知的所有権機関(WIPO) TETRALIN DERIVATIVE OR PHARMACEUTICALLY ACCEPTABLE ACID ADDITION SALT THEREOF NEW 2021/05/07 2021/05/07 筑波大学

(47/47 page)

PAGE TOP